Blanket, TX (76432)

6:59 PM CDT on September 25, 2016 (GMT -0500)
4 miles north of Zephyr, TX on Blanket Creek | | Change Station

Elev 1483 ft 31.73 °N, 98.77 °W | Updated 1 second ago

Light Rain
Light Rain
70.3 °F
Feels Like 70.3 °F
N
9.3
Wind Variable Wind from NE
Gusts 14.0 mph

Today
High -- | Low -- °F
--% Chance of Precip.
Yesterday
High -- | Low -- °F
Precip. -- in
Pressure 30.05 in
Visibility 9.0 miles
Clouds Few 7500 ft
Mostly Cloudy 11000 ft
Dew Point 68 °F
Humidity 93%
Rainfall 2.33 in
Snow Depth Not available.
7:25 AM 7:27 PM
Waning Crescent, 24% visible
METAR KBWD 252335Z AUTO 01010KT 9SM -RA FEW075 BKN110 22/20 A3005 RMK AO2
Pressure 30.05 in
Visibility 9.0 miles
Clouds Few 7500 ft
Mostly Cloudy 11000 ft
Dew Point 68 °F
Humidity 93%
Rainfall 2.33 in
Snow Depth Not available.
7:25 AM 7:27 PM
Waning Crescent, 24% visible
METAR KBWD 252335Z AUTO 01010KT 9SM -RA FEW075 BKN110 22/20 A3005 RMK AO2

10-Day Weather Forecast

Almanac

Astronomy

Sep. 25, 2016 Rise Set
Actual Time
Civil Twilight
Nautical Twilight
Astronomical Twilight
Moon
Length of Visible Light
Length of Day
Tomorrow will be .
, % of the Moon is Illuminated

Today's Extremes

State Highs State Lows

Community

WunderPhotos

Upload Photos

1,941,780 photos uploaded!

WunderBlog® & News

Nearby

Air Quality

  Air Quality AQ Index Pollutant
Not available.

Snow Depth

Station Depth Elevation

Earthquake Activity

City Distance Mag. Time & Date
Minimum magnitude displayed is 2.5.

Coastal Water Temperatures

Place Temperature

Stations

Nearby Weather Stations

Station Location Temp. Windchill Dew Point Humidity Wind Precip. Elev Updated Type
                   

Watches & Warnings

There are currently no watches in effect.